Westhampton Beach, NY (11978)

9:54 PM EST on December 05, 2016 (GMT -0500)
Montauk Highway | | Change Station

Elev 26 ft 40.82 °N, 72.60 °W | Updated 4 minutes ago

Clear
Clear
38.3 °F
Feels Like 38 °F
N
0.6
Wind Variable Wind from West
Gusts 1.2 mph

Today
High -- | Low -- °F
--% Chance of Precip.
Yesterday
High -- | Low -- °F
Precip. -- in
Pressure 30.06 in
Visibility 10.0 miles
Clouds Clear
Windchill 38 °F
Dew Point 32 °F
Humidity 79%
Rainfall Not available.
Snow Depth Not available.
6:59 AM 4:22 PM
Waxing Crescent, 37% visible
METAR KFOK 060153Z AUTO 30003KT 10SM CLR M01/M02 A3006 RMK AO2 SLP180 T10111022 TSNO
Pressure 30.06 in
Visibility 10.0 miles
Clouds Clear
Windchill 38 °F
Dew Point 32 °F
Humidity 79%
Rainfall Not available.
Snow Depth Not available.
6:59 AM 4:22 PM
Waxing Crescent, 37% visible
METAR KFOK 060153Z AUTO 30003KT 10SM CLR M01/M02 A3006 RMK AO2 SLP180 T10111022 TSNO

10-Day Weather Forecast

Almanac

Astronomy

Dec. 05, 2016 Rise Set
Actual Time
Civil Twilight
Nautical Twilight
Astronomical Twilight
Moon
Length of Visible Light
Length of Day
Tomorrow will be .
, % of the Moon is Illuminated

Today's Extremes

State Highs State Lows

Community

WunderPhotos

Upload Photos

1,955,908 photos uploaded!

WunderBlog® & News

Nearby

Air Quality

  Air Quality AQ Index Pollutant
Not available.

Snow Depth

Station Depth Elevation

Earthquake Activity

City Distance Mag. Time & Date
Minimum magnitude displayed is 2.5.

Coastal Water Temperatures

Place Temperature

Stations

Nearby Weather Stations

Station Location Temp. Windchill Dew Point Humidity Wind Precip. Elev Updated Type
                   

Watches & Warnings

There are currently no watches in effect.